| time (UTC) | temp F | wind direction | speed MPH | gust MPH | rain 1hr in | rain 24hr in | rain mn in | humidity % | barometer mb |
| 20260831024547 | 75 | 0 | 0.0 | 0.0 | 0.00 | 0.00 | 0.00 | 63 | 1021.7 |
| 20260831024023 | 75 | 0 | 0.0 | 0.0 | 0.00 | 0.00 | 0.00 | 63 | 1021.7 |
| 20260831023523 | 75 | 0 | 0.0 | 0.0 | 0.00 | 0.00 | 0.00 | 63 | 1021.7 |
| 20260831023051 | 75 | 0 | 0.0 | 0.0 | 0.00 | 0.00 | 0.00 | 63 | 1021.6 |
| 20260831022524 | 75 | 0 | 0.0 | 0.0 | 0.00 | 0.00 | 0.00 | 63 | 1021.8 |
| 20260831022024 | 76 | 0 | 0.0 | 0.0 | 0.00 | 0.00 | 0.00 | 62 | 1021.8 |
| 20260831021544 | 76 | 0 | 0.0 | 0.0 | 0.00 | 0.00 | 0.00 | 62 | 1021.8 |
| 20260831021023 | 76 | 0 | 0.0 | 0.0 | 0.00 | 0.00 | 0.00 | 62 | 1021.8 |
| 20260831020524 | 76 | 0 | 0.0 | 0.0 | 0.00 | 0.00 | 0.00 | 61 | 1021.7 |
| 20260831020054 | 76 | 0 | 0.0 | 0.0 | 0.00 | 0.00 | 0.00 | 61 | 1021.7 |
| 20260831015526 | 76 | 0 | 0.0 | 0.0 | 0.00 | 0.00 | 0.00 | 61 | 1021.7 |
| 20260831015023 | 77 | 0 | 0.0 | 0.0 | 0.00 | 0.00 | 0.00 | 61 | 1021.7 |
| 20260831014547 | 77 | 0 | 0.0 | 0.0 | 0.00 | 0.00 | 0.00 | 60 | 1021.6 |
| 20260831014024 | 76 | 0 | 0.0 | 0.0 | 0.00 | 0.00 | 0.00 | 61 | 1021.6 |
| 20260831013524 | 76 | 0 | 0.0 | 0.0 | 0.00 | 0.00 | 0.00 | 60 | 1021.6 |
| 20260831013056 | 77 | 0 | 0.0 | 0.0 | 0.00 | 0.00 | 0.00 | 60 | 1021.5 |
| 20260831012527 | 77 | 0 | 0.0 | 0.0 | 0.00 | 0.00 | 0.00 | 60 | 1021.6 |
| 20260831012024 | 77 | 0 | 0.0 | 0.0 | 0.00 | 0.00 | 0.00 | 60 | 1021.5 |
| 20260831011546 | 77 | 0 | 0.0 | 0.0 | 0.00 | 0.00 | 0.00 | 59 | 1021.4 |
| 20260831011026 | 78 | 0 | 0.0 | 0.0 | 0.00 | 0.00 | 0.00 | 59 | 1021.4 |
| 20260831010525 | 78 | 0 | 0.0 | 0.0 | 0.00 | 0.00 | 0.00 | 58 | 1021.3 |
| 20260831010053 | 78 | 0 | 0.0 | 0.0 | 0.00 | 0.00 | 0.00 | 58 | 1021.1 |
| 20260831005525 | 78 | 0 | 0.0 | 0.0 | 0.00 | 0.00 | 0.00 | 57 | 1021.1 |
| 20260831005025 | 78 | 0 | 0.0 | 0.0 | 0.00 | 0.00 | 0.00 | 57 | 1021.1 |
| 20260831004547 | 79 | 0 | 0.0 | 0.0 | 0.00 | 0.00 | 0.00 | 56 | 1021.0 |
| 20260831004028 | 79 | 0 | 0.0 | 0.0 | 0.00 | 0.00 | 0.00 | 56 | 1021.1 |
| 20260831003532 | 79 | 0 | 0.0 | 0.0 | 0.00 | 0.00 | 0.00 | 56 | 1021.0 |
| 20260831003045 | 80 | 0 | 0.0 | 0.0 | 0.00 | 0.00 | 0.00 | 55 | 1021.0 |
| 20260831002525 | 80 | 0 | 0.0 | 0.0 | 0.00 | 0.00 | 0.00 | 55 | 1020.9 |
| 20260831002023 | 80 | 0 | 0.0 | 0.0 | 0.00 | 0.00 | 0.00 | 54 | 1020.9 |
| 20260831001548 | 81 | 0 | 0.0 | 0.0 | 0.00 | 0.00 | 0.00 | 53 | 1020.8 |
| 20260831001023 | 81 | 0 | 0.0 | 0.0 | 0.00 | 0.00 | 0.00 | 53 | 1020.7 |
| 20260831000523 | 81 | 0 | 0.0 | 0.0 | 0.00 | 0.00 | 0.00 | 52 | 1020.6 |
| 20260831000044 | 82 | 0 | 0.0 | 1.0 | 0.00 | 0.00 | 0.00 | 52 | 1020.6 |
| 20260830235526 | 82 | 0 | 0.0 | 1.0 | 0.00 | 0.00 | 0.00 | 52 | 1020.5 |
| 20260830235026 | 82 | 100 | 0.0 | 1.0 | 0.00 | 0.00 | 0.00 | 52 | 1020.5 |
| 20260830234554 | 83 | 0 | 0.0 | 0.0 | 0.00 | 0.00 | 0.00 | 51 | 1020.5 |
| 20260830234025 | 83 | 0 | 0.0 | 0.0 | 0.00 | 0.00 | 0.00 | 50 | 1020.4 |
| 20260830233527 | 83 | 0 | 0.0 | 0.0 | 0.00 | 0.00 | 0.00 | 50 | 1020.4 |
| 20260830233048 | 84 | 0 | 0.0 | 2.0 | 0.00 | 0.00 | 0.00 | 50 | 1020.4 |
| 20260830232525 | 84 | 0 | 0.0 | 2.0 | 0.00 | 0.00 | 0.00 | 49 | 1020.5 |
| 20260830232024 | 84 | 100 | 1.0 | 2.0 | 0.00 | 0.00 | 0.00 | 48 | 1020.3 |
| 20260830231547 | 84 | 100 | 0.0 | 2.0 | 0.00 | 0.00 | 0.00 | 48 | 1020.4 |
| 20260830231024 | 85 | 0 | 0.0 | 1.0 | 0.00 | 0.00 | 0.00 | 47 | 1020.5 |
| 20260830230525 | 85 | 100 | 0.0 | 2.0 | 0.00 | 0.00 | 0.00 | 47 | 1020.5 |
| 20260830230043 | 85 | 0 | 0.0 | 2.0 | 0.00 | 0.00 | 0.00 | 46 | 1020.5 |
| 20260830225525 | 85 | 0 | 0.0 | 2.0 | 0.00 | 0.00 | 0.00 | 45 | 1020.4 |
| 20260830225029 | 85 | 101 | 0.0 | 2.0 | 0.00 | 0.00 | 0.00 | 46 | 1020.3 |
| 20260830224548 | 86 | 108 | 1.0 | 2.0 | 0.00 | 0.00 | 0.00 | 46 | 1020.3 |
| 20260830224027 | 86 | 109 | 1.0 | 3.0 | 0.00 | 0.00 | 0.00 | 45 | 1020.4 |
| 20260830223528 | 86 | 109 | 1.0 | 4.0 | 0.00 | 0.00 | 0.00 | 45 | 1020.4 |
| 20260830223104 | 86 | 84 | 2.0 | 4.0 | 0.00 | 0.00 | 0.00 | 44 | 1020.3 |
| 20260830222524 | 87 | 143 | 0.0 | 4.0 | 0.00 | 0.00 | 0.00 | 44 | 1020.3 |
| 20260830222026 | 87 | 66 | 0.0 | 4.0 | 0.00 | 0.00 | 0.00 | 44 | 1020.3 |
| 20260830221549 | 87 | 70 | 1.0 | 5.0 | 0.00 | 0.00 | 0.00 | 44 | 1020.3 |
| 20260830221026 | 87 | 70 | 2.0 | 5.0 | 0.00 | 0.00 | 0.00 | 43 | 1020.5 |
| 20260830220525 | 87 | 96 | 0.0 | 6.0 | 0.00 | 0.00 | 0.00 | 44 | 1020.4 |
| 20260830220044 | 87 | 96 | 2.0 | 6.0 | 0.00 | 0.00 | 0.00 | 43 | 1020.5 |
| 20260830215527 | 87 | 101 | 3.0 | 6.0 | 0.00 | 0.00 | 0.00 | 43 | 1020.6 |
| 20260830215023 | 87 | 115 | 1.0 | 4.0 | 0.00 | 0.00 | 0.00 | 43 | 1020.6 |
| 20260830214546 | 87 | 86 | 0.0 | 4.0 | 0.00 | 0.00 | 0.00 | 43 | 1020.7 |
| 20260830214028 | 87 | 85 | 2.0 | 4.0 | 0.00 | 0.00 | 0.00 | 43 | 1020.7 |
| 20260830213525 | 87 | 110 | 1.0 | 4.0 | 0.00 | 0.00 | 0.00 | 43 | 1020.7 |
| 20260830213049 | 87 | 96 | 1.0 | 4.0 | 0.00 | 0.00 | 0.00 | 44 | 1020.7 |
| 20260830212526 | 87 | 107 | 1.0 | 4.0 | 0.00 | 0.00 | 0.00 | 45 | 1020.7 |
| 20260830212026 | 87 | 121 | 0.0 | 3.0 | 0.00 | 0.00 | 0.00 | 47 | 1020.8 |
| 20260830211549 | 86 | 105 | 1.0 | 6.0 | 0.00 | 0.00 | 0.00 | 45 | 1020.8 |
| 20260830211028 | 87 | 104 | 2.0 | 9.0 | 0.00 | 0.00 | 0.00 | 45 | 1020.8 |
| 20260830210525 | 87 | 108 | 3.0 | 9.0 | 0.00 | 0.00 | 0.00 | 44 | 1020.7 |
| 20260830210048 | 87 | 103 | 4.0 | 9.0 | 0.00 | 0.00 | 0.00 | 45 | 1020.7 |
| 20260830205527 | 87 | 105 | 0.0 | 4.0 | 0.00 | 0.00 | 0.00 | 46 | 1020.7 |
| 20260830205023 | 87 | 86 | 1.0 | 6.0 | 0.00 | 0.00 | 0.00 | 45 | 1020.7 |
| 20260830204554 | 87 | 0 | 2.0 | 9.0 | 0.00 | 0.00 | 0.00 | 44 | 1020.8 |
| 20260830204024 | 87 | 112 | 3.0 | 9.0 | 0.00 | 0.00 | 0.00 | 44 | 1020.8 |
| 20260830203526 | 88 | 117 | 3.0 | 6.0 | 0.00 | 0.00 | 0.00 | 45 | 1020.8 |
| 20260830203043 | 88 | 77 | 2.0 | 6.0 | 0.00 | 0.00 | 0.00 | 43 | 1020.8 |
| 20260830202530 | 88 | 262 | 1.0 | 8.0 | 0.00 | 0.00 | 0.00 | 45 | 1020.8 |
| 20260830202026 | 88 | 94 | 1.0 | 8.0 | 0.00 | 0.00 | 0.00 | 45 | 1020.9 |
| 20260830201553 | 88 | 90 | 4.0 | 8.0 | 0.00 | 0.00 | 0.00 | 45 | 1021.0 |
| 20260830201027 | 88 | 89 | 1.0 | 5.0 | 0.00 | 0.00 | 0.00 | 46 | 1021.1 |
| 20260830200527 | 87 | 281 | 1.0 | 8.0 | 0.00 | 0.00 | 0.00 | 45 | 1021.1 |
| 20260830200049 | 87 | 242 | 1.0 | 8.0 | 0.00 | 0.00 | 0.00 | 46 | 1021.1 |
| 20260830195525 | 87 | 106 | 4.0 | 7.0 | 0.00 | 0.00 | 0.00 | 46 | 1021.3 |
| 20260830195024 | 88 | 114 | 3.0 | 9.0 | 0.00 | 0.00 | 0.00 | 47 | 1021.3 |
| 20260830194546 | 88 | 82 | 3.0 | 9.0 | 0.00 | 0.00 | 0.00 | 46 | 1021.4 |
| 20260830194024 | 88 | 92 | 3.0 | 9.0 | 0.00 | 0.00 | 0.00 | 45 | 1021.4 |
| 20260830193525 | 88 | 94 | 2.0 | 5.0 | 0.00 | 0.00 | 0.00 | 45 | 1021.4 |
| 20260830193041 | 88 | 297 | 1.0 | 8.0 | 0.00 | 0.00 | 0.00 | 46 | 1021.5 |
| 20260830192530 | 87 | 108 | 3.0 | 9.0 | 0.00 | 0.00 | 0.00 | 46 | 1021.6 |
| 20260830192025 | 87 | 116 | 5.0 | 10.0 | 0.00 | 0.00 | 0.00 | 47 | 1021.6 |
| 20260830191551 | 88 | 119 | 3.0 | 10.0 | 0.00 | 0.00 | 0.00 | 46 | 1021.6 |
| 20260830191025 | 88 | 113 | 5.0 | 10.0 | 0.00 | 0.00 | 0.00 | 46 | 1021.7 |
| 20260830190526 | 88 | 87 | 3.0 | 8.0 | 0.00 | 0.00 | 0.00 | 45 | 1021.8 |
| 20260830190105 | 89 | 94 | 3.0 | 8.0 | 0.00 | 0.00 | 0.00 | 45 | 1021.8 |
| 20260830185529 | 88 | 78 | 2.0 | 7.0 | 0.00 | 0.00 | 0.00 | 45 | 1021.9 |
| 20260830185029 | 88 | 98 | 2.0 | 7.0 | 0.00 | 0.00 | 0.00 | 47 | 1022.0 |
| 20260830184545 | 88 | 350 | 2.0 | 5.0 | 0.00 | 0.00 | 0.00 | 49 | 1022.0 |
| 20260830184024 | 87 | 89 | 2.0 | 8.0 | 0.00 | 0.00 | 0.00 | 47 | 1022.0 |
| 20260830183523 | 87 | 287 | 3.0 | 8.0 | 0.00 | 0.00 | 0.00 | 47 | 1022.2 |
| 20260830183059 | 87 | 284 | 1.0 | 7.0 | 0.00 | 0.00 | 0.00 | 45 | 1022.2 |
| 20260830182525 | 87 | 98 | 3.0 | 7.0 | 0.00 | 0.00 | 0.00 | 46 | 1022.5 |
| 20260830182028 | 87 | 302 | 3.0 | 5.0 | 0.00 | 0.00 | 0.00 | 46 | 1022.5 |
| 20260830181547 | 87 | 271 | 1.0 | 3.0 | 0.00 | 0.00 | 0.00 | 47 | 1022.5 |
| 20260830181024 | 88 | 84 | 0.0 | 3.0 | 0.00 | 0.00 | 0.00 | 48 | 1022.5 |
| 20260830180523 | 88 | 0 | 1.0 | 3.0 | 0.00 | 0.00 | 0.00 | 48 | 1022.7 |
| 20260830180045 | 87 | 0 | 1.0 | 5.0 | 0.00 | 0.00 | 0.00 | 53 | 1022.9 |
| 20260830175524 | 86 | 0 | 1.0 | 5.0 | 0.00 | 0.00 | 0.00 | 50 | 1023.0 |
| 20260830175028 | 87 | 118 | 2.0 | 8.0 | 0.00 | 0.00 | 0.00 | 49 | 1023.0 |
| 20260830174603 | 86 | 115 | 2.0 | 8.0 | 0.00 | 0.00 | 0.00 | 49 | 1023.1 |
| 20260830174026 | 86 | 286 | 1.0 | 4.0 | 0.00 | 0.00 | 0.00 | 51 | 1023.1 |
| 20260830173524 | 85 | 92 | 2.0 | 7.0 | 0.00 | 0.00 | 0.00 | 51 | 1023.3 |
| 20260830173046 | 86 | 287 | 2.0 | 7.0 | 0.00 | 0.00 | 0.00 | 47 | 1023.1 |
| 20260830172523 | 87 | 0 | 1.0 | 6.0 | 0.00 | 0.00 | 0.00 | 48 | 1023.2 |
| 20260830172023 | 88 | 127 | 2.0 | 6.0 | 0.00 | 0.00 | 0.00 | 49 | 1023.3 |
| 20260830171547 | 88 | 127 | 0.0 | 2.0 | 0.00 | 0.00 | 0.00 | 50 | 1023.3 |
| 20260830171027 | 87 | 292 | 0.0 | 3.0 | 0.00 | 0.00 | 0.00 | 53 | 1023.4 |
| 20260830170523 | 86 | 303 | 1.0 | 6.0 | 0.00 | 0.00 | 0.00 | 63 | 1023.4 |
| 20260830170053 | 86 | 131 | 0.0 | 6.0 | 0.00 | 0.00 | 0.00 | 65 | 1023.6 |
| 20260830165525 | 85 | 75 | 2.0 | 6.0 | 0.00 | 0.00 | 0.00 | 67 | 1023.7 |
| 20260830165024 | 85 | 298 | 1.0 | 6.0 | 0.00 | 0.00 | 0.00 | 67 | 1023.7 |
| 20260830164553 | 84 | 139 | 1.0 | 8.0 | 0.00 | 0.00 | 0.00 | 69 | 1023.6 |
| 20260830164023 | 84 | 90 | 4.0 | 8.0 | 0.00 | 0.00 | 0.00 | 68 | 1023.5 |
| 20260830163524 | 86 | 122 | 2.0 | 5.0 | 0.00 | 0.00 | 0.00 | 66 | 1023.7 |
| 20260830163044 | 85 | 259 | 1.0 | 4.0 | 0.00 | 0.00 | 0.00 | 71 | 1023.8 |
| 20260830162524 | 84 | 302 | 2.0 | 4.0 | 0.00 | 0.00 | 0.00 | 69 | 1023.8 |
| 20260830162026 | 83 | 93 | 1.0 | 9.0 | 0.00 | 0.00 | 0.00 | 70 | 1024.0 |
| 20260830161552 | 83 | 99 | 3.0 | 9.0 | 0.00 | 0.00 | 0.00 | 70 | 1024.1 |
| 20260830161024 | 84 | 116 | 2.0 | 6.0 | 0.00 | 0.00 | 0.00 | 68 | 1024.1 |
| 20260830160530 | 85 | 84 | 1.0 | 7.0 | 0.00 | 0.00 | 0.00 | 69 | 1024.1 |
| 20260830160048 | 84 | 283 | 1.0 | 7.0 | 0.00 | 0.00 | 0.00 | 71 | 1024.2 |
| 20260830155526 | 83 | 108 | 3.0 | 8.0 | 0.00 | 0.00 | 0.00 | 69 | 1024.3 |
| 20260830155027 | 84 | 84 | 4.0 | 8.0 | 0.00 | 0.00 | 0.00 | 69 | 1024.3 |
| 20260830154545 | 84 | 132 | 2.0 | 5.0 | 0.00 | 0.00 | 0.00 | 70 | 1024.2 |
| 20260830154028 | 84 | 104 | 2.0 | 5.0 | 0.00 | 0.00 | 0.00 | 71 | 1024.3 |
| 20260830153525 | 82 | 115 | 1.0 | 5.0 | 0.00 | 0.00 | 0.00 | 71 | 1024.2 |
| 20260830153046 | 81 | 98 | 2.0 | 5.0 | 0.00 | 0.00 | 0.00 | 74 | 1024.3 |
| 20260830152525 | 81 | 91 | 2.0 | 5.0 | 0.00 | 0.00 | 0.00 | 73 | 1024.3 |
| 20260830152027 | 81 | 111 | 2.0 | 6.0 | 0.00 | 0.00 | 0.00 | 73 | 1024.3 |
| 20260830151550 | 81 | 86 | 2.0 | 6.0 | 0.00 | 0.00 | 0.00 | 74 | 1024.3 |
| 20260830151025 | 82 | 89 | 4.0 | 6.0 | 0.00 | 0.00 | 0.00 | 71 | 1024.3 |
| 20260830150525 | 82 | 116 | 2.0 | 7.0 | 0.00 | 0.00 | 0.00 | 73 | 1024.2 |
| 20260830150053 | 83 | 55 | 2.0 | 7.0 | 0.00 | 0.00 | 0.00 | 72 | 1024.2 |
| 20260830145523 | 82 | 283 | 0.0 | 3.0 | 0.00 | 0.00 | 0.00 | 73 | 1024.3 |
| 20260830145025 | 82 | 320 | 0.0 | 3.0 | 0.00 | 0.00 | 0.00 | 72 | 1024.4 |
| 20260830144547 | 83 | 272 | 0.0 | 3.0 | 0.00 | 0.00 | 0.00 | 74 | 1024.3 |
| 20260830144024 | 81 | 252 | 1.0 | 3.0 | 0.00 | 0.00 | 0.00 | 75 | 1024.2 |
| 20260830143529 | 80 | 0 | 0.0 | 3.0 | 0.00 | 0.00 | 0.00 | 77 | 1024.2 |
| 20260830143045 | 79 | 297 | 0.0 | 3.0 | 0.00 | 0.00 | 0.00 | 77 | 1024.2 |
| 20260830142524 | 79 | 0 | 0.0 | 2.0 | 0.00 | 0.00 | 0.00 | 77 | 1024.2 |
| 20260830142025 | 79 | 0 | 0.0 | 4.0 | 0.00 | 0.00 | 0.00 | 77 | 1024.2 |
| 20260830141549 | 79 | 0 | 0.0 | 4.0 | 0.00 | 0.00 | 0.00 | 78 | 1024.1 |
| 20260830141026 | 78 | 0 | 0.0 | 1.0 | 0.00 | 0.00 | 0.00 | 79 | 1024.1 |
| 20260830140526 | 77 | 0 | 0.0 | 1.0 | 0.00 | 0.00 | 0.00 | 79 | 1024.0 |
| 20260830140048 | 77 | 0 | 0.0 | 1.0 | 0.00 | 0.00 | 0.00 | 79 | 1024.0 |
| 20260830135526 | 78 | 297 | 0.0 | 1.0 | 0.00 | 0.00 | 0.00 | 79 | 1024.1 |
| 20260830135026 | 78 | 0 | 0.0 | 1.0 | 0.00 | 0.00 | 0.00 | 79 | 1023.9 |
| 20260830134546 | 78 | 0 | 0.0 | 2.0 | 0.00 | 0.00 | 0.00 | 78 | 1024.0 |
| 20260830134025 | 78 | 0 | 0.0 | 4.0 | 0.00 | 0.00 | 0.00 | 79 | 1024.0 |
| 20260830133524 | 78 | 97 | 1.0 | 4.0 | 0.00 | 0.00 | 0.00 | 79 | 1024.0 |
| 20260830133041 | 77 | 68 | 0.0 | 4.0 | 0.00 | 0.00 | 0.00 | 81 | 1024.1 |
| 20260830132525 | 76 | 0 | 0.0 | 2.0 | 0.00 | 0.00 | 0.00 | 81 | 1024.0 |
| 20260830132028 | 76 | 0 | 0.0 | 1.0 | 0.00 | 0.00 | 0.00 | 81 | 1024.0 |
| 20260830131548 | 76 | 0 | 0.0 | 1.0 | 0.00 | 0.00 | 0.00 | 82 | 1024.0 |
| 20260830131026 | 75 | 0 | 0.0 | 2.0 | 0.00 | 0.00 | 0.00 | 82 | 1024.1 |
| 20260830130524 | 74 | 298 | 0.0 | 2.0 | 0.00 | 0.00 | 0.00 | 83 | 1024.1 |
| 20260830130048 | 74 | 249 | 0.0 | 2.0 | 0.00 | 0.00 | 0.00 | 84 | 1024.2 |
| 20260830125523 | 74 | 0 | 0.0 | 2.0 | 0.00 | 0.00 | 0.00 | 84 | 1024.2 |
| 20260830125025 | 73 | 293 | 0.0 | 2.0 | 0.00 | 0.00 | 0.00 | 84 | 1024.2 |
| 20260830124544 | 73 | 0 | 0.0 | 4.0 | 0.00 | 0.00 | 0.00 | 85 | 1024.2 |
| 20260830124028 | 73 | 0 | 0.0 | 4.0 | 0.00 | 0.00 | 0.00 | 85 | 1024.2 |
| 20260830123525 | 73 | 99 | 0.0 | 2.0 | 0.00 | 0.00 | 0.00 | 85 | 1024.2 |
| 20260830123042 | 73 | 89 | 0.0 | 2.0 | 0.00 | 0.00 | 0.00 | 85 | 1024.1 |
| 20260830122525 | 72 | 88 | 0.0 | 1.0 | 0.00 | 0.00 | 0.00 | 86 | 1023.9 |
| 20260830122024 | 72 | 79 | 0.0 | 2.0 | 0.00 | 0.00 | 0.00 | 86 | 1023.9 |
| 20260830121547 | 72 | 0 | 0.0 | 2.0 | 0.00 | 0.00 | 0.00 | 87 | 1023.8 |
| 20260830121024 | 72 | 102 | 0.0 | 2.0 | 0.00 | 0.00 | 0.00 | 87 | 1023.8 |
| 20260830120525 | 71 | 0 | 0.0 | 0.0 | 0.00 | 0.00 | 0.00 | 87 | 1024.0 |
| 20260830120053 | 71 | 0 | 0.0 | 0.0 | 0.00 | 0.00 | 0.00 | 87 | 1023.8 |
| 20260830115524 | 71 | 0 | 0.0 | 0.0 | 0.00 | 0.00 | 0.00 | 87 | 1023.6 |
| 20260830115026 | 71 | 0 | 0.0 | 0.0 | 0.00 | 0.00 | 0.00 | 87 | 1023.7 |
| 20260830114543 | 71 | 0 | 0.0 | 0.0 | 0.00 | 0.00 | 0.00 | 87 | 1023.6 |
| 20260830114026 | 70 | 0 | 0.0 | 0.0 | 0.00 | 0.00 | 0.00 | 87 | 1023.5 |
| 20260830113524 | 70 | 0 | 0.0 | 0.0 | 0.00 | 0.00 | 0.00 | 87 | 1023.4 |
| 20260830113052 | 70 | 0 | 0.0 | 0.0 | 0.00 | 0.00 | 0.00 | 87 | 1023.4 |
| 20260830112527 | 70 | 0 | 0.0 | 0.0 | 0.00 | 0.00 | 0.00 | 86 | 1023.3 |
| 20260830112024 | 70 | 0 | 0.0 | 0.0 | 0.00 | 0.00 | 0.00 | 87 | 1023.2 |
| 20260830111550 | 70 | 0 | 0.0 | 0.0 | 0.00 | 0.00 | 0.00 | 87 | 1023.3 |
| 20260830111027 | 70 | 0 | 0.0 | 0.0 | 0.00 | 0.00 | 0.00 | 86 | 1023.2 |
| 20260830110525 | 70 | 0 | 0.0 | 0.0 | 0.00 | 0.00 | 0.00 | 86 | 1023.0 |
| 20260830110048 | 70 | 0 | 0.0 | 0.0 | 0.00 | 0.00 | 0.00 | 86 | 1022.9 |
| 20260830105524 | 70 | 0 | 0.0 | 0.0 | 0.00 | 0.00 | 0.00 | 86 | 1022.9 |
| 20260830105024 | 70 | 0 | 0.0 | 0.0 | 0.00 | 0.00 | 0.00 | 86 | 1022.7 |
| 20260830104604 | 70 | 0 | 0.0 | 0.0 | 0.00 | 0.00 | 0.00 | 86 | 1022.6 |
| 20260830104025 | 70 | 0 | 0.0 | 0.0 | 0.00 | 0.00 | 0.00 | 86 | 1022.5 |
| 20260830103529 | 70 | 0 | 0.0 | 0.0 | 0.00 | 0.00 | 0.00 | 86 | 1022.5 |
| 20260830103048 | 70 | 0 | 0.0 | 0.0 | 0.00 | 0.00 | 0.00 | 86 | 1022.4 |
| 20260830102523 | 70 | 0 | 0.0 | 0.0 | 0.00 | 0.00 | 0.00 | 86 | 1022.3 |
| 20260830102023 | 70 | 0 | 0.0 | 0.0 | 0.00 | 0.00 | 0.00 | 86 | 1022.3 |
| 20260830101546 | 70 | 0 | 0.0 | 0.0 | 0.00 | 0.00 | 0.00 | 86 | 1022.3 |
| 20260830101024 | 70 | 0 | 0.0 | 0.0 | 0.00 | 0.00 | 0.00 | 86 | 1022.2 |
| 20260830100523 | 71 | 0 | 0.0 | 0.0 | 0.00 | 0.00 | 0.00 | 86 | 1022.2 |
| 20260830100045 | 70 | 0 | 0.0 | 0.0 | 0.00 | 0.00 | 0.00 | 86 | 1022.2 |
| 20260830095523 | 70 | 0 | 0.0 | 0.0 | 0.00 | 0.00 | 0.00 | 86 | 1022.1 |
| 20260830095023 | 70 | 0 | 0.0 | 0.0 | 0.00 | 0.00 | 0.00 | 86 | 1022.1 |
| 20260830094543 | 70 | 0 | 0.0 | 0.0 | 0.00 | 0.00 | 0.00 | 86 | 1022.3 |
| 20260830094027 | 70 | 0 | 0.0 | 0.0 | 0.00 | 0.00 | 0.00 | 86 | 1022.2 |
| 20260830093525 | 70 | 0 | 0.0 | 0.0 | 0.00 | 0.00 | 0.00 | 86 | 1022.2 |
| 20260830093047 | 70 | 0 | 0.0 | 0.0 | 0.00 | 0.00 | 0.00 | 86 | 1022.2 |
| 20260830092527 | 71 | 0 | 0.0 | 0.0 | 0.00 | 0.00 | 0.00 | 86 | 1022.2 |
| 20260830092025 | 71 | 0 | 0.0 | 0.0 | 0.00 | 0.00 | 0.00 | 86 | 1022.2 |
| 20260830091546 | 71 | 0 | 0.0 | 0.0 | 0.00 | 0.00 | 0.00 | 86 | 1022.2 |
| 20260830091025 | 71 | 0 | 0.0 | 0.0 | 0.00 | 0.00 | 0.00 | 86 | 1022.2 |
| 20260830090524 | 71 | 0 | 0.0 | 0.0 | 0.00 | 0.00 | 0.00 | 86 | 1022.3 |
| 20260830090045 | 71 | 0 | 0.0 | 0.0 | 0.00 | 0.00 | 0.00 | 86 | 1022.2 |
| 20260830085524 | 71 | 0 | 0.0 | 0.0 | 0.00 | 0.00 | 0.00 | 85 | 1022.3 |
| 20260830085027 | 71 | 0 | 0.0 | 0.0 | 0.00 | 0.00 | 0.00 | 85 | 1022.1 |
| 20260830084548 | 71 | 0 | 0.0 | 0.0 | 0.00 | 0.00 | 0.00 | 85 | 1022.1 |
| 20260830084024 | 71 | 0 | 0.0 | 0.0 | 0.00 | 0.00 | 0.00 | 85 | 1022.2 |
| 20260830083531 | 71 | 0 | 0.0 | 0.0 | 0.00 | 0.00 | 0.00 | 85 | 1022.2 |
| 20260830083058 | 71 | 0 | 0.0 | 0.0 | 0.00 | 0.00 | 0.00 | 85 | 1022.1 |
| 20260830082526 | 71 | 0 | 0.0 | 0.0 | 0.00 | 0.00 | 0.00 | 85 | 1022.1 |
| 20260830082024 | 71 | 0 | 0.0 | 0.0 | 0.00 | 0.00 | 0.00 | 85 | 1022.1 |
| 20260830081541 | 72 | 0 | 0.0 | 0.0 | 0.00 | 0.00 | 0.00 | 85 | 1022.2 |
| 20260830081026 | 71 | 0 | 0.0 | 0.0 | 0.00 | 0.00 | 0.00 | 85 | 1022.2 |
| 20260830080526 | 72 | 0 | 0.0 | 0.0 | 0.00 | 0.00 | 0.00 | 85 | 1022.2 |
| 20260830080049 | 72 | 0 | 0.0 | 0.0 | 0.00 | 0.00 | 0.00 | 85 | 1022.2 |
| 20260830075527 | 72 | 0 | 0.0 | 0.0 | 0.00 | 0.00 | 0.00 | 84 | 1022.2 |
| 20260830075026 | 72 | 0 | 0.0 | 0.0 | 0.00 | 0.00 | 0.00 | 84 | 1022.2 |
| 20260830074547 | 72 | 0 | 0.0 | 0.0 | 0.00 | 0.00 | 0.00 | 84 | 1022.2 |
| 20260830074024 | 72 | 0 | 0.0 | 0.0 | 0.00 | 0.00 | 0.00 | 84 | 1022.1 |
| 20260830073527 | 72 | 0 | 0.0 | 0.0 | 0.00 | 0.00 | 0.00 | 83 | 1022.1 |
| 20260830073058 | 72 | 0 | 0.0 | 0.0 | 0.00 | 0.00 | 0.00 | 83 | 1022.1 |
| 20260830072525 | 72 | 0 | 0.0 | 0.0 | 0.00 | 0.00 | 0.00 | 84 | 1022.1 |
| 20260830072029 | 72 | 0 | 0.0 | 0.0 | 0.00 | 0.00 | 0.00 | 83 | 1022.1 |
| 20260830071547 | 72 | 0 | 0.0 | 0.0 | 0.00 | 0.00 | 0.00 | 83 | 1022.2 |
| 20260830071027 | 73 | 0 | 0.0 | 0.0 | 0.00 | 0.00 | 0.00 | 83 | 1022.2 |
| 20260830070528 | 73 | 0 | 0.0 | 0.0 | 0.00 | 0.00 | 0.00 | 83 | 1022.2 |
| 20260830070047 | 72 | 0 | 0.0 | 0.0 | 0.00 | 0.00 | 0.00 | 83 | 1022.3 |
| 20260830065526 | 72 | 0 | 0.0 | 0.0 | 0.00 | 0.00 | 0.00 | 78 | 1022.3 |
| 20260830065026 | 72 | 0 | 0.0 | 0.0 | 0.00 | 0.00 | 0.00 | 78 | 1022.5 |
| 20260830064541 | 72 | 0 | 0.0 | 0.0 | 0.00 | 0.00 | 0.00 | 78 | 1022.6 |
| 20260830064026 | 73 | 0 | 0.0 | 0.0 | 0.00 | 0.00 | 0.00 | 78 | 1022.6 |
| 20260830063526 | 72 | 0 | 0.0 | 0.0 | 0.00 | 0.00 | 0.00 | 78 | 1022.7 |
| 20260830063105 | 72 | 0 | 0.0 | 0.0 | 0.00 | 0.00 | 0.00 | 77 | 1022.7 |
| 20260830062529 | 72 | 0 | 0.0 | 0.0 | 0.00 | 0.00 | 0.00 | 77 | 1022.7 |
| 20260830062026 | 72 | 0 | 0.0 | 0.0 | 0.00 | 0.00 | 0.00 | 77 | 1022.6 |
| 20260830061551 | 72 | 0 | 0.0 | 0.0 | 0.00 | 0.00 | 0.00 | 75 | 1022.7 |
| 20260830061025 | 72 | 0 | 0.0 | 0.0 | 0.00 | 0.00 | 0.00 | 75 | 1022.7 |
| 20260830060525 | 72 | 0 | 0.0 | 0.0 | 0.00 | 0.00 | 0.00 | 75 | 1022.8 |
| 20260830060052 | 72 | 0 | 0.0 | 0.0 | 0.00 | 0.00 | 0.00 | 74 | 1022.8 |
| 20260830055523 | 72 | 0 | 0.0 | 0.0 | 0.00 | 0.00 | 0.00 | 74 | 1022.7 |
| 20260830055026 | 72 | 0 | 0.0 | 0.0 | 0.00 | 0.00 | 0.00 | 74 | 1022.8 |
| 20260830054550 | 72 | 0 | 0.0 | 0.0 | 0.00 | 0.00 | 0.00 | 73 | 1022.8 |
| 20260830054025 | 72 | 0 | 0.0 | 0.0 | 0.00 | 0.00 | 0.00 | 73 | 1022.9 |
| 20260830053524 | 72 | 0 | 0.0 | 0.0 | 0.00 | 0.00 | 0.00 | 72 | 1022.9 |
| 20260830053048 | 72 | 0 | 0.0 | 0.0 | 0.00 | 0.00 | 0.00 | 71 | 1022.9 |
| 20260830052528 | 73 | 0 | 0.0 | 0.0 | 0.00 | 0.00 | 0.00 | 71 | 1022.8 |
| 20260830052025 | 73 | 0 | 0.0 | 0.0 | 0.00 | 0.00 | 0.00 | 70 | 1022.9 |
| 20260830051545 | 73 | 0 | 0.0 | 0.0 | 0.00 | 0.00 | 0.00 | 69 | 1022.9 |
| 20260830051024 | 73 | 0 | 0.0 | 0.0 | 0.00 | 0.00 | 0.00 | 68 | 1023.0 |
| 20260830050524 | 73 | 0 | 0.0 | 0.0 | 0.00 | 0.00 | 0.00 | 68 | 1022.9 |
| 20260830050044 | 74 | 0 | 0.0 | 0.0 | 0.00 | 0.00 | 0.00 | 67 | 1022.8 |
| 20260830045528 | 74 | 0 | 0.0 | 0.0 | 0.00 | 0.00 | 0.00 | 67 | 1022.9 |
| 20260830045024 | 74 | 0 | 0.0 | 0.0 | 0.00 | 0.00 | 0.00 | 67 | 1023.0 |
| 20260830044548 | 74 | 0 | 0.0 | 0.0 | 0.00 | 0.00 | 0.00 | 67 | 1023.1 |
| 20260830044027 | 74 | 0 | 0.0 | 0.0 | 0.00 | 0.00 | 0.00 | 67 | 1023.1 |
| 20260830043525 | 74 | 0 | 0.0 | 0.0 | 0.00 | 0.00 | 0.00 | 67 | 1023.1 |
| 20260830043047 | 74 | 0 | 0.0 | 0.0 | 0.00 | 0.00 | 0.00 | 67 | 1023.1 |
| 20260830042526 | 74 | 0 | 0.0 | 0.0 | 0.00 | 0.00 | 0.00 | 67 | 1023.1 |
| 20260830042026 | 74 | 0 | 0.0 | 0.0 | 0.00 | 0.00 | 0.00 | 67 | 1023.0 |
| 20260830041548 | 74 | 0 | 0.0 | 0.0 | 0.00 | 0.00 | 0.00 | 67 | 1023.1 |
| 20260830041024 | 74 | 0 | 0.0 | 0.0 | 0.00 | 0.00 | 0.00 | 67 | 1023.0 |
| 20260830040524 | 74 | 0 | 0.0 | 0.0 | 0.00 | 0.00 | 0.00 | 67 | 1023.0 |
| 20260830040046 | 74 | 0 | 0.0 | 0.0 | 0.00 | 0.00 | 0.00 | 66 | 1023.1 |
| 20260830035525 | 74 | 0 | 0.0 | 0.0 | 0.00 | 0.00 | 0.00 | 66 | 1023.1 |
| 20260830035025 | 75 | 0 | 0.0 | 0.0 | 0.00 | 0.00 | 0.00 | 66 | 1023.2 |
| 20260830034556 | 75 | 0 | 0.0 | 0.0 | 0.00 | 0.00 | 0.00 | 65 | 1023.2 |
| 20260830034026 | 75 | 0 | 0.0 | 0.0 | 0.00 | 0.00 | 0.00 | 65 | 1023.4 |
| 20260830033525 | 75 | 0 | 0.0 | 0.0 | 0.00 | 0.00 | 0.00 | 65 | 1023.4 |
| 20260830033048 | 75 | 0 | 0.0 | 0.0 | 0.00 | 0.00 | 0.00 | 64 | 1023.4 |
| 20260830032525 | 76 | 0 | 0.0 | 0.0 | 0.00 | 0.00 | 0.00 | 64 | 1023.5 |
| 20260830032024 | 76 | 0 | 0.0 | 0.0 | 0.00 | 0.00 | 0.00 | 64 | 1023.4 |
| 20260830031549 | 76 | 0 | 0.0 | 0.0 | 0.00 | 0.00 | 0.00 | 64 | 1023.3 |
| 20260830031027 | 76 | 0 | 0.0 | 1.0 | 0.00 | 0.00 | 0.00 | 64 | 1023.3 |
| 20260830030524 | 76 | 0 | 0.0 | 1.0 | 0.00 | 0.00 | 0.00 | 64 | 1023.2 |
| 20260830030044 | 76 | 0 | 0.0 | 1.0 | 0.00 | 0.00 | 0.00 | 63 | 1023.3 |
| 20260830025525 | 76 | 0 | 0.0 | 0.0 | 0.00 | 0.00 | 0.00 | 63 | 1023.2 |
| 20260830025025 | 76 | 0 | 0.0 | 0.0 | 0.00 | 0.00 | 0.00 | 63 | 1023.2 |